sensor_id;sensor_type;location;lat;lon;timestamp;pressure;altitude;pressure_sealevel;temperature;humidity
37304;BME280;23188;51.188;16.374;2022-09-09T00:01:55;99822.89;;;17.85;100.00
37304;BME280;23188;51.188;16.374;2022-09-09T00:06:08;99819.38;;;17.85;100.00
37304;BME280;23188;51.188;16.374;2022-09-09T00:10:22;99818.58;;;17.80;100.00
37304;BME280;23188;51.188;16.374;2022-09-09T00:23:28;99828.42;;;17.73;100.00
37304;BME280;23188;51.188;16.374;2022-09-09T00:31:49;99823.16;;;17.61;100.00
37304;BME280;23188;51.188;16.374;2022-09-09T00:35:57;99827.88;;;17.59;100.00
37304;BME280;23188;51.188;16.374;2022-09-09T00:40:02;99825.04;;;17.56;100.00
37304;BME280;23188;51.188;16.374;2022-09-09T00:48:59;99824.95;;;17.49;100.00
37304;BME280;23188;51.188;16.374;2022-09-09T00:53:12;99822.81;;;17.45;100.00
37304;BME280;23188;51.188;16.374;2022-09-09T00:57:33;99826.03;;;17.40;100.00
37304;BME280;23188;51.188;16.374;2022-09-09T01:01:36;99823.44;;;17.32;100.00
37304;BME280;23188;51.188;16.374;2022-09-09T01:18:53;99836.72;;;17.10;100.00
37304;BME280;23188;51.188;16.374;2022-09-09T01:27:42;99839.73;;;17.07;100.00
37304;BME280;23188;51.188;16.374;2022-09-09T01:31:59;99855.23;;;17.01;100.00
37304;BME280;23188;51.188;16.374;2022-09-09T01:36:06;99849.41;;;16.89;100.00
37304;BME280;23188;51.188;16.374;2022-09-09T01:40:09;99854.48;;;16.79;100.00
37304;BME280;23188;51.188;16.374;2022-09-09T01:44:11;99850.36;;;16.73;100.00
37304;BME280;23188;51.188;16.374;2022-09-09T01:48:12;99853.53;;;16.72;100.00
37304;BME280;23188;51.188;16.374;2022-09-09T01:52:13;99860.94;;;16.70;100.00
37304;BME280;23188;51.188;16.374;2022-09-09T01:56:37;99861.78;;;16.70;100.00
37304;BME280;23188;51.188;16.374;2022-09-09T02:00:50;99859.42;;;16.67;100.00
37304;BME280;23188;51.188;16.374;2022-09-09T02:09:12;99864.20;;;16.57;100.00
37304;BME280;23188;51.188;16.374;2022-09-09T02:13:20;99855.81;;;16.56;100.00
37304;BME280;23188;51.188;16.374;2022-09-09T02:17:26;99863.34;;;16.56;100.00
37304;BME280;23188;51.188;16.374;2022-09-09T02:21:30;99869.90;;;16.58;100.00
37304;BME280;23188;51.188;16.374;2022-09-09T02:25:33;99863.52;;;16.59;100.00
37304;BME280;23188;51.188;16.374;2022-09-09T02:29:41;99861.81;;;16.62;100.00
37304;BME280;23188;51.188;16.374;2022-09-09T02:33:56;99863.68;;;16.62;100.00
37304;BME280;23188;51.188;16.374;2022-09-09T02:37:57;99873.41;;;16.63;100.00
37304;BME280;23188;51.188;16.374;2022-09-09T02:42:03;99869.52;;;16.65;100.00
37304;BME280;23188;51.188;16.374;2022-09-09T02:50:22;99869.48;;;16.74;100.00
37304;BME280;23188;51.188;16.374;2022-09-09T02:54:31;99873.64;;;16.76;100.00
37304;BME280;23188;51.188;16.374;2022-09-09T02:58:35;99878.20;;;16.76;100.00
37304;BME280;23188;51.188;16.374;2022-09-09T03:02:37;99885.27;;;16.73;100.00
37304;BME280;23188;51.188;16.374;2022-09-09T03:06:39;99885.63;;;16.65;100.00
37304;BME280;23188;51.188;16.374;2022-09-09T03:10:40;99881.63;;;16.61;100.00
37304;BME280;23188;51.188;16.374;2022-09-09T03:14:42;99885.63;;;16.65;100.00
37304;BME280;23188;51.188;16.374;2022-09-09T03:18:45;99885.30;;;16.64;100.00
37304;BME280;23188;51.188;16.374;2022-09-09T03:22:46;99886.17;;;16.61;100.00
37304;BME280;23188;51.188;16.374;2022-09-09T03:26:48;99886.99;;;16.61;100.00
37304;BME280;23188;51.188;16.374;2022-09-09T03:30:51;99888.33;;;16.61;100.00
37304;BME280;23188;51.188;16.374;2022-09-09T03:34:52;99890.72;;;16.56;100.00
37304;BME280;23188;51.188;16.374;2022-09-09T03:38:54;99881.34;;;16.48;100.00
37304;BME280;23188;51.188;16.374;2022-09-09T03:42:56;99884.06;;;16.39;100.00
37304;BME280;23188;51.188;16.374;2022-09-09T03:46:57;99888.30;;;16.30;100.00
37304;BME280;23188;51.188;16.374;2022-09-09T03:51:00;99884.64;;;16.22;100.00
37304;BME280;23188;51.188;16.374;2022-09-09T03:55:04;99882.28;;;16.19;100.00
37304;BME280;23188;51.188;16.374;2022-09-09T03:59:06;99888.00;;;16.16;100.00
37304;BME280;23188;51.188;16.374;2022-09-09T04:03:09;99891.53;;;16.08;100.00
37304;BME280;23188;51.188;16.374;2022-09-09T04:07:11;99901.94;;;16.07;100.00
37304;BME280;23188;51.188;16.374;2022-09-09T04:11:12;99908.83;;;16.06;100.00
37304;BME280;23188;51.188;16.374;2022-09-09T04:15:13;99901.59;;;16.10;100.00
37304;BME280;23188;51.188;16.374;2022-09-09T04:19:15;99904.27;;;16.19;100.00
37304;BME280;23188;51.188;16.374;2022-09-09T04:23:17;99903.57;;;16.25;100.00
37304;BME280;23188;51.188;16.374;2022-09-09T04:27:21;99910.59;;;16.30;100.00
37304;BME280;23188;51.188;16.374;2022-09-09T04:31:23;99916.63;;;16.36;100.00
37304;BME280;23188;51.188;16.374;2022-09-09T04:35:24;99913.42;;;16.37;100.00
37304;BME280;23188;51.188;16.374;2022-09-09T04:39:25;99917.30;;;16.38;100.00
37304;BME280;23188;51.188;16.374;2022-09-09T04:43:27;99925.34;;;16.38;100.00
37304;BME280;23188;51.188;16.374;2022-09-09T04:47:28;99923.98;;;16.42;100.00
37304;BME280;23188;51.188;16.374;2022-09-09T04:51:29;99924.77;;;16.99;100.00
37304;BME280;23188;51.188;16.374;2022-09-09T04:55:32;99917.05;;;17.85;100.00
37304;BME280;23188;51.188;16.374;2022-09-09T04:59:35;99917.30;;;18.59;100.00
37304;BME280;23188;51.188;16.374;2022-09-09T05:03:36;99925.48;;;19.29;100.00
37304;BME280;23188;51.188;16.374;2022-09-09T05:07:38;99919.33;;;19.96;100.00
37304;BME280;23188;51.188;16.374;2022-09-09T05:11:39;99917.99;;;20.49;100.00
37304;BME280;23188;51.188;16.374;2022-09-09T05:15:40;99916.54;;;21.02;100.00
37304;BME280;23188;51.188;16.374;2022-09-09T05:19:43;99925.28;;;21.48;96.86
37304;BME280;23188;51.188;16.374;2022-09-09T05:23:45;99929.99;;;21.97;96.32
37304;BME280;23188;51.188;16.374;2022-09-09T05:27:47;99931.16;;;22.35;89.96
37304;BME280;23188;51.188;16.374;2022-09-09T05:31:48;99933.09;;;22.64;85.97
37304;BME280;23188;51.188;16.374;2022-09-09T05:35:55;99925.88;;;22.90;83.37
37304;BME280;23188;51.188;16.374;2022-09-09T05:39:57;99929.72;;;23.15;82.65
37304;BME280;23188;51.188;16.374;2022-09-09T05:43:58;99928.52;;;23.43;81.48
37304;BME280;23188;51.188;16.374;2022-09-09T05:48:01;99933.88;;;23.65;77.58
37304;BME280;23188;51.188;16.374;2022-09-09T05:52:03;99933.17;;;23.77;75.45
37304;BME280;23188;51.188;16.374;2022-09-09T05:56:06;99929.66;;;23.95;75.71
37304;BME280;23188;51.188;16.374;2022-09-09T06:00:12;99930.26;;;23.97;73.40
37304;BME280;23188;51.188;16.374;2022-09-09T06:04:15;99932.02;;;24.01;74.66
37304;BME280;23188;51.188;16.374;2022-09-09T06:08:16;99927.48;;;23.94;73.13
37304;BME280;23188;51.188;16.374;2022-09-09T06:12:18;99935.39;;;23.96;73.01
37304;BME280;23188;51.188;16.374;2022-09-09T06:16:21;99933.58;;;23.90;73.41
37304;BME280;23188;51.188;16.374;2022-09-09T06:20:27;99926.89;;;23.76;74.74
37304;BME280;23188;51.188;16.374;2022-09-09T06:24:30;99924.81;;;23.78;75.61
37304;BME280;23188;51.188;16.374;2022-09-09T06:28:36;99927.66;;;23.49;74.92
37304;BME280;23188;51.188;16.374;2022-09-09T06:32:34;99924.16;;;23.03;75.46
37304;BME280;23188;51.188;16.374;2022-09-09T06:36:38;99920.18;;;22.60;77.63
37304;BME280;23188;51.188;16.374;2022-09-09T06:40:41;99924.94;;;22.28;79.41
37304;BME280;23188;51.188;16.374;2022-09-09T06:44:42;99929.25;;;22.06;81.57
37304;BME280;23188;51.188;16.374;2022-09-09T06:48:43;99931.66;;;21.99;83.31
37304;BME280;23188;51.188;16.374;2022-09-09T06:52:46;99929.14;;;21.97;83.96
37304;BME280;23188;51.188;16.374;2022-09-09T06:56:49;99929.88;;;22.08;84.68
37304;BME280;23188;51.188;16.374;2022-09-09T07:00:51;99935.40;;;22.11;83.18
37304;BME280;23188;51.188;16.374;2022-09-09T07:04:53;99941.02;;;22.09;86.27
37304;BME280;23188;51.188;16.374;2022-09-09T07:09:00;99945.27;;;22.15;85.71
37304;BME280;23188;51.188;16.374;2022-09-09T07:13:04;99945.08;;;22.09;85.59
37304;BME280;23188;51.188;16.374;2022-09-09T07:17:06;99940.05;;;22.20;84.52
37304;BME280;23188;51.188;16.374;2022-09-09T07:21:10;99931.70;;;22.28;84.04
37304;BME280;23188;51.188;16.374;2022-09-09T07:25:12;99927.09;;;22.35;83.80
37304;BME280;23188;51.188;16.374;2022-09-09T07:29:14;99937.94;;;22.35;83.66
37304;BME280;23188;51.188;16.374;2022-09-09T07:33:16;99941.41;;;22.70;85.11
37304;BME280;23188;51.188;16.374;2022-09-09T07:37:17;99940.17;;;23.11;83.97
37304;BME280;23188;51.188;16.374;2022-09-09T07:41:27;99942.23;;;23.38;80.58
37304;BME280;23188;51.188;16.374;2022-09-09T07:45:34;99942.73;;;23.38;79.11
37304;BME280;23188;51.188;16.374;2022-09-09T07:49:36;99948.36;;;23.43;79.80
37304;BME280;23188;51.188;16.374;2022-09-09T07:53:38;99952.45;;;23.52;78.27
37304;BME280;23188;51.188;16.374;2022-09-09T07:57:40;99960.44;;;23.31;77.55
37304;BME280;23188;51.188;16.374;2022-09-09T08:01:48;99958.03;;;23.09;79.56
37304;BME280;23188;51.188;16.374;2022-09-09T08:05:47;99959.29;;;23.07;79.00
37304;BME280;23188;51.188;16.374;2022-09-09T08:09:48;99957.63;;;23.06;79.54
37304;BME280;23188;51.188;16.374;2022-09-09T08:13:51;99959.31;;;23.00;80.00
37304;BME280;23188;51.188;16.374;2022-09-09T08:17:53;99951.75;;;22.93;80.08
37304;BME280;23188;51.188;16.374;2022-09-09T08:21:54;99955.79;;;23.00;78.33
37304;BME280;23188;51.188;16.374;2022-09-09T08:26:03;99962.10;;;23.09;80.89
37304;BME280;23188;51.188;16.374;2022-09-09T08:30:05;99962.75;;;23.28;79.87
37304;BME280;23188;51.188;16.374;2022-09-09T08:34:08;99960.78;;;23.25;80.08
37304;BME280;23188;51.188;16.374;2022-09-09T08:38:10;99962.44;;;23.43;80.00
37304;BME280;23188;51.188;16.374;2022-09-09T08:42:23;99969.66;;;23.72;79.17
37304;BME280;23188;51.188;16.374;2022-09-09T08:46:27;99969.64;;;23.97;79.29
37304;BME280;23188;51.188;16.374;2022-09-09T08:50:42;99970.16;;;24.03;77.83
37304;BME280;23188;51.188;16.374;2022-09-09T08:54:44;99979.13;;;24.04;72.44
37304;BME280;23188;51.188;16.374;2022-09-09T08:58:49;99980.16;;;24.28;78.25
37304;BME280;23188;51.188;16.374;2022-09-09T09:03:06;99982.91;;;24.47;77.25
37304;BME280;23188;51.188;16.374;2022-09-09T09:11:56;99982.61;;;24.64;72.88
37304;BME280;23188;51.188;16.374;2022-09-09T09:16:12;99981.63;;;24.49;69.84
37304;BME280;23188;51.188;16.374;2022-09-09T09:20:15;99974.28;;;24.22;69.80
37304;BME280;23188;51.188;16.374;2022-09-09T09:24:22;99976.23;;;24.24;74.13
37304;BME280;23188;51.188;16.374;2022-09-09T09:28:29;99973.91;;;24.28;73.24
37304;BME280;23188;51.188;16.374;2022-09-09T09:32:33;99980.94;;;24.45;73.95
37304;BME280;23188;51.188;16.374;2022-09-09T09:36:53;99975.66;;;24.68;71.34
37304;BME280;23188;51.188;16.374;2022-09-09T09:40:57;99971.72;;;24.74;69.47
37304;BME280;23188;51.188;16.374;2022-09-09T09:45:20;99965.70;;;24.62;68.87
37304;BME280;23188;51.188;16.374;2022-09-09T09:49:29;99979.66;;;24.57;70.13
37304;BME280;23188;51.188;16.374;2022-09-09T09:53:32;99975.97;;;24.60;72.16
37304;BME280;23188;51.188;16.374;2022-09-09T09:57:35;99967.04;;;24.53;70.31
37304;BME280;23188;51.188;16.374;2022-09-09T10:01:37;99974.59;;;24.70;73.26
37304;BME280;23188;51.188;16.374;2022-09-09T10:05:44;99982.20;;;24.77;72.14
37304;BME280;23188;51.188;16.374;2022-09-09T10:09:54;99990.77;;;25.02;71.37
37304;BME280;23188;51.188;16.374;2022-09-09T10:14:13;99990.64;;;24.97;69.26
37304;BME280;23188;51.188;16.374;2022-09-09T10:22:43;99980.19;;;25.03;68.93
37304;BME280;23188;51.188;16.374;2022-09-09T10:31:22;99966.59;;;25.03;66.16
37304;BME280;23188;51.188;16.374;2022-09-09T10:35:53;99971.59;;;24.87;64.54
37304;BME280;23188;51.188;16.374;2022-09-09T10:40:32;99969.11;;;24.76;64.84
37304;BME280;23188;51.188;16.374;2022-09-09T10:45:00;99965.25;;;24.84;67.25
37304;BME280;23188;51.188;16.374;2022-09-09T10:49:15;99958.52;;;24.96;62.78
37304;BME280;23188;51.188;16.374;2022-09-09T10:57:58;99946.31;;;25.17;64.54
37304;BME280;23188;51.188;16.374;2022-09-09T11:06:23;99947.91;;;25.37;66.82
37304;BME280;23188;51.188;16.374;2022-09-09T11:15:12;99955.59;;;25.49;66.00
37304;BME280;23188;51.188;16.374;2022-09-09T11:19:36;99950.63;;;25.58;62.16
37304;BME280;23188;51.188;16.374;2022-09-09T11:23:49;99951.84;;;25.74;64.20
37304;BME280;23188;51.188;16.374;2022-09-09T11:37:17;99950.27;;;26.00;65.57
37304;BME280;23188;51.188;16.374;2022-09-09T11:41:32;99945.27;;;26.18;64.63
37304;BME280;23188;51.188;16.374;2022-09-09T11:45:33;99945.00;;;26.31;63.12
37304;BME280;23188;51.188;16.374;2022-09-09T11:49:42;99943.89;;;26.30;62.20
37304;BME280;23188;51.188;16.374;2022-09-09T11:53:58;99945.66;;;26.00;60.07
37304;BME280;23188;51.188;16.374;2022-09-09T11:58:05;99945.18;;;25.91;60.55
37304;BME280;23188;51.188;16.374;2022-09-09T12:02:24;99941.86;;;26.01;62.61
37304;BME280;23188;51.188;16.374;2022-09-09T12:06:31;99937.70;;;26.10;62.35
37304;BME280;23188;51.188;16.374;2022-09-09T12:10:36;99933.01;;;26.18;62.89
37304;BME280;23188;51.188;16.374;2022-09-09T12:14:54;99933.89;;;26.21;58.17
37304;BME280;23188;51.188;16.374;2022-09-09T12:19:14;99929.50;;;26.20;59.39
37304;BME280;23188;51.188;16.374;2022-09-09T12:27:47;99929.06;;;26.37;58.23
37304;BME280;23188;51.188;16.374;2022-09-09T12:32:12;99922.26;;;26.52;60.44
37304;BME280;23188;51.188;16.374;2022-09-09T12:36:27;99923.49;;;26.59;60.15
37304;BME280;23188;51.188;16.374;2022-09-09T12:40:32;99930.95;;;26.63;58.58
37304;BME280;23188;51.188;16.374;2022-09-09T12:44:36;99934.52;;;26.78;63.79
37304;BME280;23188;51.188;16.374;2022-09-09T12:48:39;99923.74;;;26.98;58.47
37304;BME280;23188;51.188;16.374;2022-09-09T12:52:45;99923.80;;;27.01;57.38
37304;BME280;23188;51.188;16.374;2022-09-09T12:56:48;99907.19;;;26.88;57.54
37304;BME280;23188;51.188;16.374;2022-09-09T13:00:52;99911.22;;;26.85;57.46
37304;BME280;23188;51.188;16.374;2022-09-09T13:05:17;99919.00;;;26.79;56.43
37304;BME280;23188;51.188;16.374;2022-09-09T13:09:18;99924.36;;;26.74;57.69
37304;BME280;23188;51.188;16.374;2022-09-09T13:13:22;99916.92;;;26.72;61.10
37304;BME280;23188;51.188;16.374;2022-09-09T13:17:35;99912.78;;;26.55;61.94
37304;BME280;23188;51.188;16.374;2022-09-09T13:21:38;99899.56;;;26.22;63.51
37304;BME280;23188;51.188;16.374;2022-09-09T13:25:40;99882.91;;;26.21;61.48
37304;BME280;23188;51.188;16.374;2022-09-09T13:29:50;99899.73;;;26.30;64.67
37304;BME280;23188;51.188;16.374;2022-09-09T13:33:49;99892.33;;;26.28;59.43
37304;BME280;23188;51.188;16.374;2022-09-09T13:37:51;99892.55;;;26.38;59.13
37304;BME280;23188;51.188;16.374;2022-09-09T13:41:52;99888.47;;;26.38;61.11
37304;BME280;23188;51.188;16.374;2022-09-09T13:45:55;99882.27;;;26.43;59.10
37304;BME280;23188;51.188;16.374;2022-09-09T13:50:20;99876.39;;;26.49;59.50
37304;BME280;23188;51.188;16.374;2022-09-09T13:54:23;99884.98;;;26.55;58.21
37304;BME280;23188;51.188;16.374;2022-09-09T13:58:25;99882.72;;;26.52;59.26
37304;BME280;23188;51.188;16.374;2022-09-09T14:02:27;99879.89;;;26.47;58.32
37304;BME280;23188;51.188;16.374;2022-09-09T14:06:29;99874.64;;;26.43;60.53
37304;BME280;23188;51.188;16.374;2022-09-09T14:10:30;99883.34;;;26.28;60.39
37304;BME280;23188;51.188;16.374;2022-09-09T14:14:32;99884.40;;;26.15;60.08
37304;BME280;23188;51.188;16.374;2022-09-09T14:18:33;99877.24;;;25.99;59.45
37304;BME280;23188;51.188;16.374;2022-09-09T14:22:35;99882.38;;;25.74;61.44
37304;BME280;23188;51.188;16.374;2022-09-09T14:26:37;99876.63;;;25.49;62.16
37304;BME280;23188;51.188;16.374;2022-09-09T14:30:40;99886.77;;;25.30;62.65
37304;BME280;23188;51.188;16.374;2022-09-09T14:34:42;99881.79;;;25.27;63.39
37304;BME280;23188;51.188;16.374;2022-09-09T14:38:43;99880.05;;;25.23;62.87
37304;BME280;23188;51.188;16.374;2022-09-09T14:42:45;99870.84;;;25.15;63.56
37304;BME280;23188;51.188;16.374;2022-09-09T14:46:46;99872.16;;;25.13;64.96
37304;BME280;23188;51.188;16.374;2022-09-09T14:50:47;99884.45;;;25.15;65.47
37304;BME280;23188;51.188;16.374;2022-09-09T14:54:50;99890.05;;;25.20;64.63
37304;BME280;23188;51.188;16.374;2022-09-09T14:58:56;99890.36;;;25.12;69.00
37304;BME280;23188;51.188;16.374;2022-09-09T15:02:58;99885.75;;;24.73;67.47
37304;BME280;23188;51.188;16.374;2022-09-09T15:06:59;99884.30;;;24.39;69.85
37304;BME280;23188;51.188;16.374;2022-09-09T15:11:05;99880.52;;;24.13;68.38
37304;BME280;23188;51.188;16.374;2022-09-09T15:15:08;99878.20;;;23.91;70.66
37304;BME280;23188;51.188;16.374;2022-09-09T15:19:10;99883.84;;;23.71;72.50
37304;BME280;23188;51.188;16.374;2022-09-09T15:23:13;99875.73;;;23.38;73.65
37304;BME280;23188;51.188;16.374;2022-09-09T15:27:14;99877.48;;;23.10;73.96
37304;BME280;23188;51.188;16.374;2022-09-09T15:31:21;99876.33;;;22.92;76.14
37304;BME280;23188;51.188;16.374;2022-09-09T15:35:24;99879.00;;;22.83;75.83
37304;BME280;23188;51.188;16.374;2022-09-09T15:39:25;99883.91;;;22.77;76.64
37304;BME280;23188;51.188;16.374;2022-09-09T15:43:26;99894.45;;;22.76;77.39
37304;BME280;23188;51.188;16.374;2022-09-09T15:47:28;99897.09;;;22.73;78.01
37304;BME280;23188;51.188;16.374;2022-09-09T15:51:29;99903.43;;;22.76;78.51
37304;BME280;23188;51.188;16.374;2022-09-09T15:55:30;99898.01;;;22.76;78.26
37304;BME280;23188;51.188;16.374;2022-09-09T15:59:32;99891.23;;;22.76;76.90
37304;BME280;23188;51.188;16.374;2022-09-09T16:03:35;99894.45;;;22.76;77.61
37304;BME280;23188;51.188;16.374;2022-09-09T16:07:39;99893.13;;;22.69;79.44
37304;BME280;23188;51.188;16.374;2022-09-09T16:11:42;99909.92;;;22.68;80.07
37304;BME280;23188;51.188;16.374;2022-09-09T16:15:44;99919.52;;;22.71;82.59
37304;BME280;23188;51.188;16.374;2022-09-09T16:19:47;99924.45;;;22.58;85.78
37304;BME280;23188;51.188;16.374;2022-09-09T16:23:49;99911.05;;;22.40;88.90
37304;BME280;23188;51.188;16.374;2022-09-09T16:27:51;99891.69;;;22.30;90.75
37304;BME280;23188;51.188;16.374;2022-09-09T16:31:54;99873.73;;;22.06;89.16
37304;BME280;23188;51.188;16.374;2022-09-09T16:35:56;99864.52;;;21.85;90.99
37304;BME280;23188;51.188;16.374;2022-09-09T16:39:57;99868.89;;;21.65;90.77
37304;BME280;23188;51.188;16.374;2022-09-09T16:44:01;99880.73;;;21.58;91.26
37304;BME280;23188;51.188;16.374;2022-09-09T16:48:04;99885.83;;;21.57;91.61
37304;BME280;23188;51.188;16.374;2022-09-09T16:52:06;99885.20;;;21.61;91.81
37304;BME280;23188;51.188;16.374;2022-09-09T16:56:08;99885.71;;;21.61;91.25
37304;BME280;23188;51.188;16.374;2022-09-09T17:00:11;99881.88;;;21.52;94.86
37304;BME280;23188;51.188;16.374;2022-09-09T17:04:24;99884.26;;;21.38;95.06
37304;BME280;23188;51.188;16.374;2022-09-09T17:08:24;99894.34;;;21.40;95.88
37304;BME280;23188;51.188;16.374;2022-09-09T17:12:26;99892.69;;;21.39;96.84
37304;BME280;23188;51.188;16.374;2022-09-09T17:16:30;99895.81;;;21.36;97.37
37304;BME280;23188;51.188;16.374;2022-09-09T17:20:37;99895.17;;;21.27;98.88
37304;BME280;23188;51.188;16.374;2022-09-09T17:24:40;99901.61;;;21.19;100.00
37304;BME280;23188;51.188;16.374;2022-09-09T17:28:42;99902.55;;;21.16;100.00
37304;BME280;23188;51.188;16.374;2022-09-09T17:32:45;99904.23;;;21.23;100.00
37304;BME280;23188;51.188;16.374;2022-09-09T17:36:47;99902.87;;;21.30;100.00
37304;BME280;23188;51.188;16.374;2022-09-09T17:40:49;99909.94;;;21.31;100.00
37304;BME280;23188;51.188;16.374;2022-09-09T17:44:51;99916.20;;;21.32;100.00
37304;BME280;23188;51.188;16.374;2022-09-09T17:48:56;99910.49;;;21.37;100.00
37304;BME280;23188;51.188;16.374;2022-09-09T17:52:59;99909.97;;;21.45;99.85
37304;BME280;23188;51.188;16.374;2022-09-09T17:57:00;99896.98;;;21.44;100.00
37304;BME280;23188;51.188;16.374;2022-09-09T18:01:07;99896.56;;;21.47;100.00
37304;BME280;23188;51.188;16.374;2022-09-09T18:05:10;99905.41;;;21.52;99.82
37304;BME280;23188;51.188;16.374;2022-09-09T18:09:17;99904.56;;;21.51;99.47
37304;BME280;23188;51.188;16.374;2022-09-09T18:13:22;99914.33;;;21.39;100.00
37304;BME280;23188;51.188;16.374;2022-09-09T18:17:24;99923.48;;;21.38;100.00
37304;BME280;23188;51.188;16.374;2022-09-09T18:21:29;99921.73;;;21.34;99.69
37304;BME280;23188;51.188;16.374;2022-09-09T18:25:39;99927.94;;;21.28;100.00
37304;BME280;23188;51.188;16.374;2022-09-09T18:29:41;99933.98;;;21.23;100.00
37304;BME280;23188;51.188;16.374;2022-09-09T18:33:44;99934.30;;;21.24;100.00
37304;BME280;23188;51.188;16.374;2022-09-09T18:37:47;99935.86;;;21.30;100.00
37304;BME280;23188;51.188;16.374;2022-09-09T18:41:51;99940.35;;;21.33;100.00
37304;BME280;23188;51.188;16.374;2022-09-09T18:45:55;99947.05;;;21.13;100.00
37304;BME280;23188;51.188;16.374;2022-09-09T18:50:00;99948.55;;;20.91;100.00
37304;BME280;23188;51.188;16.374;2022-09-09T18:54:04;99949.95;;;20.63;100.00
37304;BME280;23188;51.188;16.374;2022-09-09T18:58:10;99953.97;;;20.56;100.00
37304;BME280;23188;51.188;16.374;2022-09-09T19:02:13;99959.59;;;20.54;100.00
37304;BME280;23188;51.188;16.374;2022-09-09T19:06:20;99958.83;;;20.50;100.00
37304;BME280;23188;51.188;16.374;2022-09-09T19:10:23;99955.19;;;20.53;100.00
37304;BME280;23188;51.188;16.374;2022-09-09T19:14:25;99954.87;;;20.52;100.00
37304;BME280;23188;51.188;16.374;2022-09-09T19:18:27;99951.36;;;20.52;100.00
37304;BME280;23188;51.188;16.374;2022-09-09T19:22:29;99951.45;;;20.48;100.00
37304;BME280;23188;51.188;16.374;2022-09-09T19:26:35;99947.94;;;20.36;100.00
37304;BME280;23188;51.188;16.374;2022-09-09T19:30:43;99949.14;;;20.27;100.00
37304;BME280;23188;51.188;16.374;2022-09-09T19:34:46;99943.38;;;20.19;100.00
37304;BME280;23188;51.188;16.374;2022-09-09T19:38:48;99940.95;;;20.14;100.00
37304;BME280;23188;51.188;16.374;2022-09-09T19:42:50;99938.65;;;20.10;100.00
37304;BME280;23188;51.188;16.374;2022-09-09T19:46:53;99938.80;;;20.20;100.00
37304;BME280;23188;51.188;16.374;2022-09-09T19:50:55;99938.89;;;20.33;100.00
37304;BME280;23188;51.188;16.374;2022-09-09T19:54:58;99955.05;;;20.26;100.00
37304;BME280;23188;51.188;16.374;2022-09-09T19:59:01;99966.61;;;20.31;100.00
37304;BME280;23188;51.188;16.374;2022-09-09T20:03:03;99958.56;;;20.38;100.00
37304;BME280;23188;51.188;16.374;2022-09-09T20:07:05;99960.09;;;20.36;100.00
37304;BME280;23188;51.188;16.374;2022-09-09T20:11:07;99954.55;;;20.45;100.00
37304;BME280;23188;51.188;16.374;2022-09-09T20:15:09;99960.81;;;20.52;100.00
37304;BME280;23188;51.188;16.374;2022-09-09T20:19:12;99953.11;;;20.49;100.00
37304;BME280;23188;51.188;16.374;2022-09-09T20:23:14;99964.58;;;20.22;100.00
37304;BME280;23188;51.188;16.374;2022-09-09T20:27:16;99960.34;;;20.13;100.00
37304;BME280;23188;51.188;16.374;2022-09-09T20:31:20;99967.23;;;20.16;100.00
37304;BME280;23188;51.188;16.374;2022-09-09T20:35:24;99962.95;;;20.10;100.00
37304;BME280;23188;51.188;16.374;2022-09-09T20:39:26;99964.58;;;19.94;100.00
37304;BME280;23188;51.188;16.374;2022-09-09T20:43:27;99965.85;;;19.76;100.00
37304;BME280;23188;51.188;16.374;2022-09-09T20:47:29;99971.00;;;19.71;100.00
37304;BME280;23188;51.188;16.374;2022-09-09T20:51:31;99967.71;;;19.65;100.00
37304;BME280;23188;51.188;16.374;2022-09-09T20:55:34;99965.16;;;19.57;100.00
37304;BME280;23188;51.188;16.374;2022-09-09T20:59:35;99967.53;;;19.45;100.00
37304;BME280;23188;51.188;16.374;2022-09-09T21:03:37;99971.77;;;19.43;100.00
37304;BME280;23188;51.188;16.374;2022-09-09T21:07:38;99972.92;;;19.34;100.00
37304;BME280;23188;51.188;16.374;2022-09-09T21:11:39;99972.22;;;19.36;100.00
37304;BME280;23188;51.188;16.374;2022-09-09T21:15:44;99977.61;;;19.36;100.00
37304;BME280;23188;51.188;16.374;2022-09-09T21:19:45;99977.36;;;19.31;100.00
37304;BME280;23188;51.188;16.374;2022-09-09T21:23:47;99981.12;;;19.25;100.00
37304;BME280;23188;51.188;16.374;2022-09-09T21:27:49;99986.16;;;19.29;100.00
37304;BME280;23188;51.188;16.374;2022-09-09T21:31:51;99991.85;;;19.19;100.00
37304;BME280;23188;51.188;16.374;2022-09-09T21:36:07;99996.20;;;19.09;100.00
37304;BME280;23188;51.188;16.374;2022-09-09T21:40:07;100001.88;;;18.99;100.00
37304;BME280;23188;51.188;16.374;2022-09-09T21:44:10;99995.27;;;18.72;100.00
37304;BME280;23188;51.188;16.374;2022-09-09T21:48:15;99996.33;;;18.66;100.00
37304;BME280;23188;51.188;16.374;2022-09-09T21:52:19;99999.59;;;18.62;100.00
37304;BME280;23188;51.188;16.374;2022-09-09T21:56:21;100002.41;;;18.49;100.00
37304;BME280;23188;51.188;16.374;2022-09-09T22:00:23;99998.05;;;18.48;100.00
37304;BME280;23188;51.188;16.374;2022-09-09T22:04:24;99997.23;;;18.48;100.00
37304;BME280;23188;51.188;16.374;2022-09-09T22:08:28;99995.19;;;18.50;100.00
37304;BME280;23188;51.188;16.374;2022-09-09T22:12:29;99998.92;;;18.45;100.00
37304;BME280;23188;51.188;16.374;2022-09-09T22:16:30;99994.39;;;18.45;100.00
37304;BME280;23188;51.188;16.374;2022-09-09T22:20:33;99984.04;;;18.38;100.00
37304;BME280;23188;51.188;16.374;2022-09-09T22:24:39;99983.56;;;18.34;100.00
37304;BME280;23188;51.188;16.374;2022-09-09T22:28:40;99992.98;;;18.34;100.00
37304;BME280;23188;51.188;16.374;2022-09-09T22:32:42;99990.09;;;18.36;100.00
37304;BME280;23188;51.188;16.374;2022-09-09T22:36:43;99998.70;;;18.35;100.00